Terminal Aerodrome Forecast
Issued by NWS Twin Cities, MN

Home | Current Version | Previous Version | Text Only | Print | Product List | Glossary Off
Versions: 1 2 3 4 5 6 7 8 9 10 11 12 13 14

000
FTUS43 KMPX 281736
TAFSTC
TAF
KSTC 281736Z 2818/2918 19012KT P6SM SCT020 OVC035
      TEMPO 2818/2820 P6SM BKN025
     FM282000 23015G22KT P6SM SCT025 OVC040
     FM290200 25010G15KT P6SM SCT250
     FM291430 26018G25KT P6SM SKC=

USA.gov is the U.S. government's official web portal to all federal, state and local government web resources and services.